sensor_id;sensor_type;location;lat;lon;timestamp;P1;durP1;ratioP1;P2;durP2;ratioP2
50988;SDS011;37008;52.210;21.112;2023-12-07T00:01:03;74.20;;;35.42;;
50988;SDS011;37008;52.210;21.112;2023-12-07T00:03:29;66.85;;;33.40;;
50988;SDS011;37008;52.210;21.112;2023-12-07T00:05:55;69.30;;;33.92;;
50988;SDS011;37008;52.210;21.112;2023-12-07T00:08:20;68.20;;;33.22;;
50988;SDS011;37008;52.210;21.112;2023-12-07T00:10:46;71.45;;;32.35;;
50988;SDS011;37008;52.210;21.112;2023-12-07T00:13:12;74.65;;;34.00;;
50988;SDS011;37008;52.210;21.112;2023-12-07T00:15:37;67.15;;;33.03;;
50988;SDS011;37008;52.210;21.112;2023-12-07T00:18:03;69.70;;;31.40;;
50988;SDS011;37008;52.210;21.112;2023-12-07T00:20:29;77.57;;;34.83;;
50988;SDS011;37008;52.210;21.112;2023-12-07T00:22:55;75.93;;;33.80;;
50988;SDS011;37008;52.210;21.112;2023-12-07T00:25:21;70.05;;;33.50;;
50988;SDS011;37008;52.210;21.112;2023-12-07T00:27:47;79.80;;;35.13;;
50988;SDS011;37008;52.210;21.112;2023-12-07T00:30:13;70.22;;;32.63;;
50988;SDS011;37008;52.210;21.112;2023-12-07T00:32:40;77.00;;;35.30;;
50988;SDS011;37008;52.210;21.112;2023-12-07T00:35:08;69.93;;;32.53;;
50988;SDS011;37008;52.210;21.112;2023-12-07T00:37:35;73.60;;;34.28;;
50988;SDS011;37008;52.210;21.112;2023-12-07T00:40:01;75.95;;;33.58;;
50988;SDS011;37008;52.210;21.112;2023-12-07T00:42:27;84.30;;;34.72;;
50988;SDS011;37008;52.210;21.112;2023-12-07T00:44:53;71.47;;;33.05;;
50988;SDS011;37008;52.210;21.112;2023-12-07T00:47:19;80.40;;;32.88;;
50988;SDS011;37008;52.210;21.112;2023-12-07T00:49:44;79.18;;;33.10;;
50988;SDS011;37008;52.210;21.112;2023-12-07T00:52:10;86.75;;;32.70;;
50988;SDS011;37008;52.210;21.112;2023-12-07T00:54:35;72.00;;;30.17;;
50988;SDS011;37008;52.210;21.112;2023-12-07T00:57:01;68.93;;;30.77;;
50988;SDS011;37008;52.210;21.112;2023-12-07T00:59:27;85.57;;;34.13;;
50988;SDS011;37008;52.210;21.112;2023-12-07T01:01:52;86.75;;;33.65;;
50988;SDS011;37008;52.210;21.112;2023-12-07T01:04:18;89.57;;;34.85;;
50988;SDS011;37008;52.210;21.112;2023-12-07T01:06:44;84.47;;;31.45;;
50988;SDS011;37008;52.210;21.112;2023-12-07T01:09:09;80.32;;;32.40;;
50988;SDS011;37008;52.210;21.112;2023-12-07T01:11:38;81.93;;;33.65;;
50988;SDS011;37008;52.210;21.112;2023-12-07T01:14:07;83.30;;;31.42;;
50988;SDS011;37008;52.210;21.112;2023-12-07T01:16:32;88.60;;;36.53;;
50988;SDS011;37008;52.210;21.112;2023-12-07T01:18:58;91.38;;;35.67;;
50988;SDS011;37008;52.210;21.112;2023-12-07T01:21:24;95.30;;;36.42;;
50988;SDS011;37008;52.210;21.112;2023-12-07T01:23:49;100.25;;;36.05;;
50988;SDS011;37008;52.210;21.112;2023-12-07T01:26:15;91.97;;;34.83;;
50988;SDS011;37008;52.210;21.112;2023-12-07T01:28:40;86.68;;;34.38;;
50988;SDS011;37008;52.210;21.112;2023-12-07T01:31:06;85.75;;;34.75;;
50988;SDS011;37008;52.210;21.112;2023-12-07T01:33:31;95.00;;;35.22;;
50988;SDS011;37008;52.210;21.112;2023-12-07T01:35:57;99.72;;;36.70;;
50988;SDS011;37008;52.210;21.112;2023-12-07T01:38:23;99.55;;;35.33;;
50988;SDS011;37008;52.210;21.112;2023-12-07T01:40:48;95.43;;;35.63;;
50988;SDS011;37008;52.210;21.112;2023-12-07T01:43:14;93.53;;;36.47;;
50988;SDS011;37008;52.210;21.112;2023-12-07T01:45:40;97.55;;;34.13;;
50988;SDS011;37008;52.210;21.112;2023-12-07T01:48:05;99.22;;;35.50;;
50988;SDS011;37008;52.210;21.112;2023-12-07T01:50:31;94.80;;;33.92;;
50988;SDS011;37008;52.210;21.112;2023-12-07T01:53:00;85.53;;;33.58;;
50988;SDS011;37008;52.210;21.112;2023-12-07T01:55:27;103.40;;;36.33;;
50988;SDS011;37008;52.210;21.112;2023-12-07T01:57:54;93.13;;;35.60;;
50988;SDS011;37008;52.210;21.112;2023-12-07T02:00:20;100.20;;;36.05;;
50988;SDS011;37008;52.210;21.112;2023-12-07T02:02:46;90.32;;;33.35;;
50988;SDS011;37008;52.210;21.112;2023-12-07T02:05:12;96.75;;;35.38;;
50988;SDS011;37008;52.210;21.112;2023-12-07T02:07:39;97.00;;;34.75;;
50988;SDS011;37008;52.210;21.112;2023-12-07T02:10:06;87.45;;;33.92;;
50988;SDS011;37008;52.210;21.112;2023-12-07T02:12:32;89.93;;;34.45;;
50988;SDS011;37008;52.210;21.112;2023-12-07T02:15:00;88.13;;;33.47;;
50988;SDS011;37008;52.210;21.112;2023-12-07T02:17:28;89.32;;;33.92;;
50988;SDS011;37008;52.210;21.112;2023-12-07T02:20:11;93.30;;;31.85;;
50988;SDS011;37008;52.210;21.112;2023-12-07T02:22:48;87.43;;;32.15;;
50988;SDS011;37008;52.210;21.112;2023-12-07T02:25:18;89.10;;;33.85;;
50988;SDS011;37008;52.210;21.112;2023-12-07T02:27:48;83.60;;;31.77;;
50988;SDS011;37008;52.210;21.112;2023-12-07T02:30:14;76.93;;;30.98;;
50988;SDS011;37008;52.210;21.112;2023-12-07T02:32:41;85.65;;;31.63;;
50988;SDS011;37008;52.210;21.112;2023-12-07T02:35:09;90.28;;;31.65;;
50988;SDS011;37008;52.210;21.112;2023-12-07T02:37:44;75.13;;;30.67;;
50988;SDS011;37008;52.210;21.112;2023-12-07T02:40:16;82.43;;;29.80;;
50988;SDS011;37008;52.210;21.112;2023-12-07T02:42:43;90.72;;;32.30;;
50988;SDS011;37008;52.210;21.112;2023-12-07T02:45:09;96.88;;;33.60;;
50988;SDS011;37008;52.210;21.112;2023-12-07T02:47:35;126.50;;;38.70;;
50988;SDS011;37008;52.210;21.112;2023-12-07T02:50:02;96.85;;;35.78;;
50988;SDS011;37008;52.210;21.112;2023-12-07T02:52:30;91.40;;;34.10;;
50988;SDS011;37008;52.210;21.112;2023-12-07T02:54:56;85.32;;;32.13;;
50988;SDS011;37008;52.210;21.112;2023-12-07T02:57:21;85.35;;;30.45;;
50988;SDS011;37008;52.210;21.112;2023-12-07T02:59:47;84.25;;;32.60;;
50988;SDS011;37008;52.210;21.112;2023-12-07T03:02:13;97.35;;;34.10;;
50988;SDS011;37008;52.210;21.112;2023-12-07T03:04:38;91.38;;;32.17;;
50988;SDS011;37008;52.210;21.112;2023-12-07T03:07:04;105.68;;;38.83;;
50988;SDS011;37008;52.210;21.112;2023-12-07T03:09:29;105.18;;;36.22;;
50988;SDS011;37008;52.210;21.112;2023-12-07T03:11:55;93.68;;;34.17;;
50988;SDS011;37008;52.210;21.112;2023-12-07T03:14:21;92.85;;;34.78;;
50988;SDS011;37008;52.210;21.112;2023-12-07T03:16:46;90.10;;;33.67;;
50988;SDS011;37008;52.210;21.112;2023-12-07T03:19:12;87.60;;;33.28;;
50988;SDS011;37008;52.210;21.112;2023-12-07T03:21:41;83.28;;;32.85;;
50988;SDS011;37008;52.210;21.112;2023-12-07T03:24:07;85.18;;;32.45;;
50988;SDS011;37008;52.210;21.112;2023-12-07T03:26:33;83.22;;;31.42;;
50988;SDS011;37008;52.210;21.112;2023-12-07T03:29:00;76.05;;;27.77;;
50988;SDS011;37008;52.210;21.112;2023-12-07T03:31:25;75.03;;;30.67;;
50988;SDS011;37008;52.210;21.112;2023-12-07T03:33:52;82.70;;;30.92;;
50988;SDS011;37008;52.210;21.112;2023-12-07T03:36:18;84.32;;;31.83;;
50988;SDS011;37008;52.210;21.112;2023-12-07T03:38:43;84.65;;;30.15;;
50988;SDS011;37008;52.210;21.112;2023-12-07T03:41:09;78.25;;;30.92;;
50988;SDS011;37008;52.210;21.112;2023-12-07T03:43:34;99.10;;;34.75;;
50988;SDS011;37008;52.210;21.112;2023-12-07T03:46:03;77.75;;;30.77;;
50988;SDS011;37008;52.210;21.112;2023-12-07T03:48:29;91.20;;;33.33;;
50988;SDS011;37008;52.210;21.112;2023-12-07T03:50:55;90.97;;;34.78;;
50988;SDS011;37008;52.210;21.112;2023-12-07T03:53:21;90.22;;;32.47;;
50988;SDS011;37008;52.210;21.112;2023-12-07T03:55:46;84.25;;;32.63;;
50988;SDS011;37008;52.210;21.112;2023-12-07T03:58:13;100.07;;;37.15;;
50988;SDS011;37008;52.210;21.112;2023-12-07T04:00:38;98.13;;;36.20;;
50988;SDS011;37008;52.210;21.112;2023-12-07T04:03:04;90.95;;;36.88;;
50988;SDS011;37008;52.210;21.112;2023-12-07T04:05:30;85.70;;;35.65;;
50988;SDS011;37008;52.210;21.112;2023-12-07T04:07:56;86.78;;;34.58;;
50988;SDS011;37008;52.210;21.112;2023-12-07T04:10:22;86.45;;;34.20;;
50988;SDS011;37008;52.210;21.112;2023-12-07T04:12:49;81.35;;;32.80;;
50988;SDS011;37008;52.210;21.112;2023-12-07T04:15:14;87.55;;;33.15;;
50988;SDS011;37008;52.210;21.112;2023-12-07T04:17:40;76.40;;;29.70;;
50988;SDS011;37008;52.210;21.112;2023-12-07T04:20:06;77.38;;;32.25;;
50988;SDS011;37008;52.210;21.112;2023-12-07T04:22:32;83.28;;;32.85;;
50988;SDS011;37008;52.210;21.112;2023-12-07T04:24:58;78.68;;;31.38;;
50988;SDS011;37008;52.210;21.112;2023-12-07T04:27:24;85.28;;;35.30;;
50988;SDS011;37008;52.210;21.112;2023-12-07T04:29:49;86.72;;;33.20;;
50988;SDS011;37008;52.210;21.112;2023-12-07T04:32:15;78.55;;;32.67;;
50988;SDS011;37008;52.210;21.112;2023-12-07T04:34:41;74.68;;;30.60;;
50988;SDS011;37008;52.210;21.112;2023-12-07T04:37:06;87.32;;;31.30;;
50988;SDS011;37008;52.210;21.112;2023-12-07T04:39:32;88.00;;;34.05;;
50988;SDS011;37008;52.210;21.112;2023-12-07T04:41:57;80.05;;;31.20;;
50988;SDS011;37008;52.210;21.112;2023-12-07T04:44:23;73.80;;;31.15;;
50988;SDS011;37008;52.210;21.112;2023-12-07T04:46:50;80.63;;;32.53;;
50988;SDS011;37008;52.210;21.112;2023-12-07T04:49:16;82.53;;;32.50;;
50988;SDS011;37008;52.210;21.112;2023-12-07T04:51:43;90.43;;;32.05;;
50988;SDS011;37008;52.210;21.112;2023-12-07T04:54:11;91.70;;;32.92;;
50988;SDS011;37008;52.210;21.112;2023-12-07T04:56:39;74.15;;;30.55;;
50988;SDS011;37008;52.210;21.112;2023-12-07T04:59:05;80.20;;;31.52;;
50988;SDS011;37008;52.210;21.112;2023-12-07T05:01:31;75.88;;;32.72;;
50988;SDS011;37008;52.210;21.112;2023-12-07T05:03:57;72.38;;;29.65;;
50988;SDS011;37008;52.210;21.112;2023-12-07T05:06:22;69.97;;;29.33;;
50988;SDS011;37008;52.210;21.112;2023-12-07T05:08:48;73.72;;;30.23;;
50988;SDS011;37008;52.210;21.112;2023-12-07T05:11:13;76.25;;;30.35;;
50988;SDS011;37008;52.210;21.112;2023-12-07T05:13:39;70.50;;;28.67;;
50988;SDS011;37008;52.210;21.112;2023-12-07T05:16:05;73.78;;;31.42;;
50988;SDS011;37008;52.210;21.112;2023-12-07T05:18:31;75.45;;;28.30;;
50988;SDS011;37008;52.210;21.112;2023-12-07T05:20:56;68.32;;;29.25;;
50988;SDS011;37008;52.210;21.112;2023-12-07T05:23:22;77.05;;;30.17;;
50988;SDS011;37008;52.210;21.112;2023-12-07T05:25:47;67.35;;;27.95;;
50988;SDS011;37008;52.210;21.112;2023-12-07T05:28:13;72.72;;;30.38;;
50988;SDS011;37008;52.210;21.112;2023-12-07T05:30:39;77.15;;;29.95;;
50988;SDS011;37008;52.210;21.112;2023-12-07T05:33:05;69.90;;;28.58;;
50988;SDS011;37008;52.210;21.112;2023-12-07T05:35:30;70.55;;;29.38;;
50988;SDS011;37008;52.210;21.112;2023-12-07T05:37:56;71.47;;;30.75;;
50988;SDS011;37008;52.210;21.112;2023-12-07T05:40:23;71.78;;;29.88;;
50988;SDS011;37008;52.210;21.112;2023-12-07T05:42:49;71.00;;;30.40;;
50988;SDS011;37008;52.210;21.112;2023-12-07T05:45:15;70.35;;;28.08;;
50988;SDS011;37008;52.210;21.112;2023-12-07T05:47:41;67.20;;;28.20;;
50988;SDS011;37008;52.210;21.112;2023-12-07T05:50:07;66.53;;;28.17;;
50988;SDS011;37008;52.210;21.112;2023-12-07T05:52:33;70.40;;;30.60;;
50988;SDS011;37008;52.210;21.112;2023-12-07T05:54:59;68.18;;;28.70;;
50988;SDS011;37008;52.210;21.112;2023-12-07T05:57:24;66.30;;;28.13;;
50988;SDS011;37008;52.210;21.112;2023-12-07T05:59:50;61.00;;;24.88;;
50988;SDS011;37008;52.210;21.112;2023-12-07T06:02:16;72.13;;;29.20;;
50988;SDS011;37008;52.210;21.112;2023-12-07T06:04:41;70.82;;;30.05;;
50988;SDS011;37008;52.210;21.112;2023-12-07T06:07:07;63.08;;;29.23;;
50988;SDS011;37008;52.210;21.112;2023-12-07T06:09:32;69.07;;;30.48;;
50988;SDS011;37008;52.210;21.112;2023-12-07T06:11:59;67.30;;;29.58;;
50988;SDS011;37008;52.210;21.112;2023-12-07T06:14:25;61.13;;;28.25;;
50988;SDS011;37008;52.210;21.112;2023-12-07T06:16:50;65.82;;;29.83;;
50988;SDS011;37008;52.210;21.112;2023-12-07T06:19:16;69.60;;;30.25;;
50988;SDS011;37008;52.210;21.112;2023-12-07T06:21:43;70.18;;;30.02;;
50988;SDS011;37008;52.210;21.112;2023-12-07T06:24:09;70.03;;;31.58;;
50988;SDS011;37008;52.210;21.112;2023-12-07T06:26:35;63.42;;;30.20;;
50988;SDS011;37008;52.210;21.112;2023-12-07T06:29:01;67.85;;;31.48;;
50988;SDS011;37008;52.210;21.112;2023-12-07T06:31:27;72.55;;;31.83;;
50988;SDS011;37008;52.210;21.112;2023-12-07T06:33:52;71.57;;;32.47;;
50988;SDS011;37008;52.210;21.112;2023-12-07T06:36:22;74.13;;;33.97;;
50988;SDS011;37008;52.210;21.112;2023-12-07T06:38:48;72.43;;;33.90;;
50988;SDS011;37008;52.210;21.112;2023-12-07T06:41:14;72.75;;;31.75;;
50988;SDS011;37008;52.210;21.112;2023-12-07T06:43:43;63.85;;;30.98;;
50988;SDS011;37008;52.210;21.112;2023-12-07T06:46:12;64.97;;;30.40;;
50988;SDS011;37008;52.210;21.112;2023-12-07T06:48:38;61.97;;;29.92;;
50988;SDS011;37008;52.210;21.112;2023-12-07T06:51:05;56.42;;;29.25;;
50988;SDS011;37008;52.210;21.112;2023-12-07T06:53:30;69.07;;;32.25;;
50988;SDS011;37008;52.210;21.112;2023-12-07T06:55:59;66.50;;;30.08;;
50988;SDS011;37008;52.210;21.112;2023-12-07T06:58:24;98.15;;;34.33;;
50988;SDS011;37008;52.210;21.112;2023-12-07T07:00:50;78.07;;;31.15;;
50988;SDS011;37008;52.210;21.112;2023-12-07T07:03:16;127.95;;;35.60;;
50988;SDS011;37008;52.210;21.112;2023-12-07T07:05:42;86.72;;;32.60;;
50988;SDS011;37008;52.210;21.112;2023-12-07T07:08:08;71.13;;;32.97;;
50988;SDS011;37008;52.210;21.112;2023-12-07T07:10:33;68.65;;;30.38;;
50988;SDS011;37008;52.210;21.112;2023-12-07T07:13:02;55.92;;;30.38;;
50988;SDS011;37008;52.210;21.112;2023-12-07T07:15:30;64.95;;;28.90;;
50988;SDS011;37008;52.210;21.112;2023-12-07T07:17:56;55.97;;;29.83;;
50988;SDS011;37008;52.210;21.112;2023-12-07T07:20:21;54.28;;;28.75;;
50988;SDS011;37008;52.210;21.112;2023-12-07T07:22:47;54.85;;;28.58;;
50988;SDS011;37008;52.210;21.112;2023-12-07T07:25:13;55.70;;;29.42;;
50988;SDS011;37008;52.210;21.112;2023-12-07T07:27:41;59.50;;;30.92;;
50988;SDS011;37008;52.210;21.112;2023-12-07T07:30:07;52.17;;;29.92;;
50988;SDS011;37008;52.210;21.112;2023-12-07T07:32:33;54.00;;;29.90;;
50988;SDS011;37008;52.210;21.112;2023-12-07T07:34:59;67.35;;;32.00;;
50988;SDS011;37008;52.210;21.112;2023-12-07T07:37:25;53.40;;;29.08;;
50988;SDS011;37008;52.210;21.112;2023-12-07T07:39:51;55.75;;;30.80;;
50988;SDS011;37008;52.210;21.112;2023-12-07T07:42:17;58.58;;;33.35;;
50988;SDS011;37008;52.210;21.112;2023-12-07T07:44:42;54.60;;;31.73;;
50988;SDS011;37008;52.210;21.112;2023-12-07T07:47:08;54.75;;;31.35;;
50988;SDS011;37008;52.210;21.112;2023-12-07T07:49:33;54.22;;;31.08;;
50988;SDS011;37008;52.210;21.112;2023-12-07T07:51:59;53.50;;;29.52;;
50988;SDS011;37008;52.210;21.112;2023-12-07T07:54:25;53.22;;;30.25;;
50988;SDS011;37008;52.210;21.112;2023-12-07T07:56:51;54.75;;;30.85;;
50988;SDS011;37008;52.210;21.112;2023-12-07T07:59:17;56.90;;;28.83;;
50988;SDS011;37008;52.210;21.112;2023-12-07T08:01:42;56.40;;;31.05;;
50988;SDS011;37008;52.210;21.112;2023-12-07T08:04:09;54.30;;;30.67;;
50988;SDS011;37008;52.210;21.112;2023-12-07T08:06:35;56.22;;;30.35;;
50988;SDS011;37008;52.210;21.112;2023-12-07T08:09:01;51.45;;;30.52;;
50988;SDS011;37008;52.210;21.112;2023-12-07T08:11:26;54.92;;;30.77;;
50988;SDS011;37008;52.210;21.112;2023-12-07T08:13:52;162.77;;;83.97;;
50988;SDS011;37008;52.210;21.112;2023-12-07T08:16:18;115.85;;;63.72;;
50988;SDS011;37008;52.210;21.112;2023-12-07T08:18:44;76.90;;;44.92;;
50988;SDS011;37008;52.210;21.112;2023-12-07T08:21:18;60.92;;;33.88;;
50988;SDS011;37008;52.210;21.112;2023-12-07T08:23:45;80.20;;;47.53;;
50988;SDS011;37008;52.210;21.112;2023-12-07T08:26:10;63.92;;;39.03;;
50988;SDS011;37008;52.210;21.112;2023-12-07T08:28:36;60.70;;;34.45;;
50988;SDS011;37008;52.210;21.112;2023-12-07T08:31:01;60.50;;;36.38;;
50988;SDS011;37008;52.210;21.112;2023-12-07T08:33:27;60.50;;;34.60;;
50988;SDS011;37008;52.210;21.112;2023-12-07T08:35:53;56.35;;;33.70;;
50988;SDS011;37008;52.210;21.112;2023-12-07T08:38:20;65.05;;;35.97;;
50988;SDS011;37008;52.210;21.112;2023-12-07T08:40:47;56.35;;;33.30;;
50988;SDS011;37008;52.210;21.112;2023-12-07T08:43:12;60.47;;;35.80;;
50988;SDS011;37008;52.210;21.112;2023-12-07T08:45:39;58.85;;;34.42;;
50988;SDS011;37008;52.210;21.112;2023-12-07T08:48:04;57.60;;;34.35;;
50988;SDS011;37008;52.210;21.112;2023-12-07T08:50:30;64.47;;;35.95;;
50988;SDS011;37008;52.210;21.112;2023-12-07T08:52:56;84.47;;;51.33;;
50988;SDS011;37008;52.210;21.112;2023-12-07T08:55:21;71.93;;;44.78;;
50988;SDS011;37008;52.210;21.112;2023-12-07T08:57:47;74.85;;;45.83;;
50988;SDS011;37008;52.210;21.112;2023-12-07T09:00:13;89.53;;;51.28;;
50988;SDS011;37008;52.210;21.112;2023-12-07T09:02:39;85.43;;;48.95;;
50988;SDS011;37008;52.210;21.112;2023-12-07T09:05:04;87.15;;;46.33;;
50988;SDS011;37008;52.210;21.112;2023-12-07T09:07:30;78.85;;;45.95;;
50988;SDS011;37008;52.210;21.112;2023-12-07T09:09:56;109.45;;;61.50;;
50988;SDS011;37008;52.210;21.112;2023-12-07T09:12:22;88.45;;;54.78;;
50988;SDS011;37008;52.210;21.112;2023-12-07T09:14:47;91.28;;;55.42;;
50988;SDS011;37008;52.210;21.112;2023-12-07T09:17:13;88.25;;;55.17;;
50988;SDS011;37008;52.210;21.112;2023-12-07T09:19:39;78.40;;;46.42;;
50988;SDS011;37008;52.210;21.112;2023-12-07T09:22:09;83.28;;;50.80;;
50988;SDS011;37008;52.210;21.112;2023-12-07T09:24:35;78.85;;;47.55;;
50988;SDS011;37008;52.210;21.112;2023-12-07T09:27:00;82.13;;;46.85;;
50988;SDS011;37008;52.210;21.112;2023-12-07T09:29:26;73.93;;;43.08;;
50988;SDS011;37008;52.210;21.112;2023-12-07T09:31:52;86.28;;;49.00;;
50988;SDS011;37008;52.210;21.112;2023-12-07T09:34:17;78.97;;;43.70;;
50988;SDS011;37008;52.210;21.112;2023-12-07T09:36:44;70.00;;;39.38;;
50988;SDS011;37008;52.210;21.112;2023-12-07T09:39:11;73.85;;;42.20;;
50988;SDS011;37008;52.210;21.112;2023-12-07T09:41:36;70.93;;;39.97;;
50988;SDS011;37008;52.210;21.112;2023-12-07T09:44:03;70.82;;;42.28;;
50988;SDS011;37008;52.210;21.112;2023-12-07T09:46:29;82.00;;;48.80;;
50988;SDS011;37008;52.210;21.112;2023-12-07T09:48:55;73.35;;;45.50;;
50988;SDS011;37008;52.210;21.112;2023-12-07T09:51:21;65.25;;;40.30;;
50988;SDS011;37008;52.210;21.112;2023-12-07T09:53:48;69.47;;;39.78;;
50988;SDS011;37008;52.210;21.112;2023-12-07T09:56:17;62.53;;;37.95;;
50988;SDS011;37008;52.210;21.112;2023-12-07T09:58:43;63.83;;;39.03;;
50988;SDS011;37008;52.210;21.112;2023-12-07T10:01:09;68.10;;;42.75;;
50988;SDS011;37008;52.210;21.112;2023-12-07T10:03:38;53.50;;;35.70;;
50988;SDS011;37008;52.210;21.112;2023-12-07T10:06:04;54.25;;;34.55;;
50988;SDS011;37008;52.210;21.112;2023-12-07T10:08:30;60.55;;;38.45;;
50988;SDS011;37008;52.210;21.112;2023-12-07T10:11:05;57.38;;;35.75;;
50988;SDS011;37008;52.210;21.112;2023-12-07T10:13:33;56.58;;;35.17;;
50988;SDS011;37008;52.210;21.112;2023-12-07T10:16:06;56.83;;;34.40;;
50988;SDS011;37008;52.210;21.112;2023-12-07T10:18:34;61.45;;;37.55;;
50988;SDS011;37008;52.210;21.112;2023-12-07T10:21:01;60.28;;;38.97;;
50988;SDS011;37008;52.210;21.112;2023-12-07T10:23:28;56.80;;;35.50;;
50988;SDS011;37008;52.210;21.112;2023-12-07T10:25:56;69.22;;;45.63;;
50988;SDS011;37008;52.210;21.112;2023-12-07T10:28:24;74.00;;;46.58;;
50988;SDS011;37008;52.210;21.112;2023-12-07T10:30:50;63.88;;;42.17;;
50988;SDS011;37008;52.210;21.112;2023-12-07T10:33:16;71.72;;;44.72;;
50988;SDS011;37008;52.210;21.112;2023-12-07T10:35:44;73.32;;;45.35;;
50988;SDS011;37008;52.210;21.112;2023-12-07T10:38:09;77.35;;;48.00;;
50988;SDS011;37008;52.210;21.112;2023-12-07T10:40:36;74.03;;;46.63;;
50988;SDS011;37008;52.210;21.112;2023-12-07T10:43:04;168.30;;;98.88;;
50988;SDS011;37008;52.210;21.112;2023-12-07T10:45:31;103.97;;;62.65;;
50988;SDS011;37008;52.210;21.112;2023-12-07T10:48:02;112.50;;;69.40;;
50988;SDS011;37008;52.210;21.112;2023-12-07T10:50:30;85.50;;;53.83;;
50988;SDS011;37008;52.210;21.112;2023-12-07T10:52:59;67.95;;;42.13;;
50988;SDS011;37008;52.210;21.112;2023-12-07T10:55:35;58.63;;;38.40;;
50988;SDS011;37008;52.210;21.112;2023-12-07T10:58:24;62.78;;;37.03;;
50988;SDS011;37008;52.210;21.112;2023-12-07T11:00:52;59.85;;;39.10;;
50988;SDS011;37008;52.210;21.112;2023-12-07T11:03:18;52.20;;;34.15;;
50988;SDS011;37008;52.210;21.112;2023-12-07T11:05:46;58.08;;;37.53;;
50988;SDS011;37008;52.210;21.112;2023-12-07T11:08:24;52.20;;;34.42;;
50988;SDS011;37008;52.210;21.112;2023-12-07T11:13:32;57.33;;;35.08;;
50988;SDS011;37008;52.210;21.112;2023-12-07T11:16:00;47.55;;;31.58;;
50988;SDS011;37008;52.210;21.112;2023-12-07T11:18:27;55.92;;;36.35;;
50988;SDS011;37008;52.210;21.112;2023-12-07T11:20:56;57.03;;;34.47;;
50988;SDS011;37008;52.210;21.112;2023-12-07T11:23:23;53.35;;;32.95;;
50988;SDS011;37008;52.210;21.112;2023-12-07T11:25:51;51.90;;;33.33;;
50988;SDS011;37008;52.210;21.112;2023-12-07T11:28:18;57.63;;;34.45;;
50988;SDS011;37008;52.210;21.112;2023-12-07T11:30:58;47.30;;;32.42;;
50988;SDS011;37008;52.210;21.112;2023-12-07T11:33:26;51.22;;;33.03;;
50988;SDS011;37008;52.210;21.112;2023-12-07T11:36:04;49.03;;;32.45;;
50988;SDS011;37008;52.210;21.112;2023-12-07T11:38:31;51.50;;;33.15;;
50988;SDS011;37008;52.210;21.112;2023-12-07T11:40:57;49.08;;;32.25;;
50988;SDS011;37008;52.210;21.112;2023-12-07T11:45:57;54.55;;;33.22;;
50988;SDS011;37008;52.210;21.112;2023-12-07T11:48:23;47.53;;;31.58;;
50988;SDS011;37008;52.210;21.112;2023-12-07T11:51:08;52.55;;;33.45;;
50988;SDS011;37008;52.210;21.112;2023-12-07T11:53:35;52.00;;;32.83;;
50988;SDS011;37008;52.210;21.112;2023-12-07T11:56:03;54.03;;;33.42;;
50988;SDS011;37008;52.210;21.112;2023-12-07T11:58:30;47.85;;;33.05;;
50988;SDS011;37008;52.210;21.112;2023-12-07T12:00:57;48.42;;;32.72;;
50988;SDS011;37008;52.210;21.112;2023-12-07T12:03:24;50.90;;;32.33;;
50988;SDS011;37008;52.210;21.112;2023-12-07T12:05:54;54.47;;;35.70;;
50988;SDS011;37008;52.210;21.112;2023-12-07T12:08:21;55.95;;;36.47;;
50988;SDS011;37008;52.210;21.112;2023-12-07T12:10:47;58.70;;;38.10;;
50988;SDS011;37008;52.210;21.112;2023-12-07T12:13:33;63.53;;;40.03;;
50988;SDS011;37008;52.210;21.112;2023-12-07T12:16:00;55.67;;;37.42;;
50988;SDS011;37008;52.210;21.112;2023-12-07T12:18:27;58.85;;;37.60;;
50988;SDS011;37008;52.210;21.112;2023-12-07T12:20:53;68.63;;;45.20;;
50988;SDS011;37008;52.210;21.112;2023-12-07T12:23:19;54.08;;;36.55;;
50988;SDS011;37008;52.210;21.112;2023-12-07T12:25:45;50.58;;;34.40;;
50988;SDS011;37008;52.210;21.112;2023-12-07T12:28:13;55.88;;;34.50;;
50988;SDS011;37008;52.210;21.112;2023-12-07T12:30:41;56.83;;;37.53;;
50988;SDS011;37008;52.210;21.112;2023-12-07T12:33:07;51.65;;;34.17;;
50988;SDS011;37008;52.210;21.112;2023-12-07T12:35:32;52.30;;;34.35;;
50988;SDS011;37008;52.210;21.112;2023-12-07T12:37:58;57.15;;;36.95;;
50988;SDS011;37008;52.210;21.112;2023-12-07T12:40:26;53.75;;;35.33;;
50988;SDS011;37008;52.210;21.112;2023-12-07T12:42:54;55.20;;;33.13;;
50988;SDS011;37008;52.210;21.112;2023-12-07T12:45:19;56.22;;;35.03;;
50988;SDS011;37008;52.210;21.112;2023-12-07T12:47:46;50.42;;;34.15;;
50988;SDS011;37008;52.210;21.112;2023-12-07T12:50:32;53.08;;;31.83;;
50988;SDS011;37008;52.210;21.112;2023-12-07T12:53:07;53.83;;;34.88;;
50988;SDS011;37008;52.210;21.112;2023-12-07T12:55:38;54.30;;;33.25;;
50988;SDS011;37008;52.210;21.112;2023-12-07T12:58:06;54.15;;;33.97;;
50988;SDS011;37008;52.210;21.112;2023-12-07T13:00:33;53.83;;;34.03;;
50988;SDS011;37008;52.210;21.112;2023-12-07T13:03:03;53.50;;;34.13;;
50988;SDS011;37008;52.210;21.112;2023-12-07T13:05:29;57.38;;;34.42;;
50988;SDS011;37008;52.210;21.112;2023-12-07T13:07:57;50.65;;;33.78;;
50988;SDS011;37008;52.210;21.112;2023-12-07T13:10:24;51.67;;;33.15;;
50988;SDS011;37008;52.210;21.112;2023-12-07T13:12:50;58.70;;;33.83;;
50988;SDS011;37008;52.210;21.112;2023-12-07T13:15:16;52.08;;;32.15;;
50988;SDS011;37008;52.210;21.112;2023-12-07T13:17:42;55.17;;;33.30;;
50988;SDS011;37008;52.210;21.112;2023-12-07T13:20:08;57.55;;;34.60;;
50988;SDS011;37008;52.210;21.112;2023-12-07T13:22:39;54.00;;;34.38;;
50988;SDS011;37008;52.210;21.112;2023-12-07T13:25:05;55.75;;;35.95;;
50988;SDS011;37008;52.210;21.112;2023-12-07T13:27:32;57.70;;;36.70;;
50988;SDS011;37008;52.210;21.112;2023-12-07T13:29:58;57.78;;;35.63;;
50988;SDS011;37008;52.210;21.112;2023-12-07T13:32:24;60.13;;;35.95;;
50988;SDS011;37008;52.210;21.112;2023-12-07T13:34:50;59.90;;;39.45;;
50988;SDS011;37008;52.210;21.112;2023-12-07T13:37:16;64.00;;;40.47;;
50988;SDS011;37008;52.210;21.112;2023-12-07T13:39:41;57.10;;;37.58;;
50988;SDS011;37008;52.210;21.112;2023-12-07T13:42:08;57.17;;;37.70;;
50988;SDS011;37008;52.210;21.112;2023-12-07T13:44:36;64.78;;;42.30;;
50988;SDS011;37008;52.210;21.112;2023-12-07T13:47:01;57.00;;;36.05;;
50988;SDS011;37008;52.210;21.112;2023-12-07T13:49:28;54.10;;;35.78;;
50988;SDS011;37008;52.210;21.112;2023-12-07T13:51:54;53.38;;;34.38;;
50988;SDS011;37008;52.210;21.112;2023-12-07T13:54:20;54.03;;;34.75;;
50988;SDS011;37008;52.210;21.112;2023-12-07T13:56:48;56.95;;;36.53;;
50988;SDS011;37008;52.210;21.112;2023-12-07T13:59:13;56.05;;;36.03;;
50988;SDS011;37008;52.210;21.112;2023-12-07T14:01:39;53.50;;;34.95;;
50988;SDS011;37008;52.210;21.112;2023-12-07T14:04:06;116.65;;;77.63;;
50988;SDS011;37008;52.210;21.112;2023-12-07T14:06:32;77.38;;;50.55;;
50988;SDS011;37008;52.210;21.112;2023-12-07T14:09:00;63.05;;;41.47;;
50988;SDS011;37008;52.210;21.112;2023-12-07T14:11:27;65.03;;;45.58;;